sensor_id;sensor_type;location;lat;lon;timestamp;P1;durP1;ratioP1;P2;durP2;ratioP2
74799;SDS011;63326;45.088;7.658;2024-01-15T00:00:20;16.65;;;6.93;;
74799;SDS011;63326;45.088;7.658;2024-01-15T00:02:48;16.73;;;7.38;;
74799;SDS011;63326;45.088;7.658;2024-01-15T00:05:14;10.45;;;7.20;;
74799;SDS011;63326;45.088;7.658;2024-01-15T00:07:41;10.93;;;6.57;;
74799;SDS011;63326;45.088;7.658;2024-01-15T00:10:08;7.38;;;5.97;;
74799;SDS011;63326;45.088;7.658;2024-01-15T00:12:35;11.00;;;5.38;;
74799;SDS011;63326;45.088;7.658;2024-01-15T00:15:02;17.27;;;8.63;;
74799;SDS011;63326;45.088;7.658;2024-01-15T00:17:47;13.30;;;6.63;;
74799;SDS011;63326;45.088;7.658;2024-01-15T00:20:14;11.18;;;6.45;;
74799;SDS011;63326;45.088;7.658;2024-01-15T00:22:41;7.43;;;5.53;;
74799;SDS011;63326;45.088;7.658;2024-01-15T00:31:58;11.75;;;6.30;;
74799;SDS011;63326;45.088;7.658;2024-01-15T00:34:24;8.63;;;6.53;;
74799;SDS011;63326;45.088;7.658;2024-01-15T00:36:51;7.45;;;5.47;;
74799;SDS011;63326;45.088;7.658;2024-01-15T00:39:18;10.07;;;5.75;;
74799;SDS011;63326;45.088;7.658;2024-01-15T00:41:45;10.40;;;7.03;;
74799;SDS011;63326;45.088;7.658;2024-01-15T00:44:12;8.55;;;5.25;;
74799;SDS011;63326;45.088;7.658;2024-01-15T00:46:45;7.63;;;6.70;;
74799;SDS011;63326;45.088;7.658;2024-01-15T00:49:13;14.45;;;6.03;;
74799;SDS011;63326;45.088;7.658;2024-01-15T00:51:40;8.77;;;5.63;;
74799;SDS011;63326;45.088;7.658;2024-01-15T00:54:08;6.75;;;5.07;;
74799;SDS011;63326;45.088;7.658;2024-01-15T00:56:35;10.52;;;5.95;;
74799;SDS011;63326;45.088;7.658;2024-01-15T00:59:01;8.38;;;6.75;;
74799;SDS011;63326;45.088;7.658;2024-01-15T01:01:28;13.50;;;7.53;;
74799;SDS011;63326;45.088;7.658;2024-01-15T01:03:56;11.30;;;8.70;;
74799;SDS011;63326;45.088;7.658;2024-01-15T01:06:24;7.55;;;5.20;;
74799;SDS011;63326;45.088;7.658;2024-01-15T01:08:51;8.80;;;7.93;;
74799;SDS011;63326;45.088;7.658;2024-01-15T01:11:18;9.02;;;6.65;;
74799;SDS011;63326;45.088;7.658;2024-01-15T01:13:44;8.13;;;5.57;;
74799;SDS011;63326;45.088;7.658;2024-01-15T01:16:11;12.30;;;6.50;;
74799;SDS011;63326;45.088;7.658;2024-01-15T01:18:38;11.43;;;5.90;;
74799;SDS011;63326;45.088;7.658;2024-01-15T01:21:04;14.38;;;7.38;;
74799;SDS011;63326;45.088;7.658;2024-01-15T01:23:31;16.08;;;7.28;;
74799;SDS011;63326;45.088;7.658;2024-01-15T01:25:58;10.55;;;6.13;;
74799;SDS011;63326;45.088;7.658;2024-01-15T01:28:25;11.48;;;7.07;;
74799;SDS011;63326;45.088;7.658;2024-01-15T01:30:51;12.63;;;5.82;;
74799;SDS011;63326;45.088;7.658;2024-01-15T01:33:18;9.10;;;6.10;;
74799;SDS011;63326;45.088;7.658;2024-01-15T01:35:45;15.95;;;7.57;;
74799;SDS011;63326;45.088;7.658;2024-01-15T01:38:13;17.92;;;7.38;;
74799;SDS011;63326;45.088;7.658;2024-01-15T01:40:39;8.75;;;5.22;;
74799;SDS011;63326;45.088;7.658;2024-01-15T01:43:06;8.27;;;5.70;;
74799;SDS011;63326;45.088;7.658;2024-01-15T01:45:34;9.10;;;6.00;;
74799;SDS011;63326;45.088;7.658;2024-01-15T01:48:01;11.73;;;5.82;;
74799;SDS011;63326;45.088;7.658;2024-01-15T01:50:29;10.15;;;6.90;;
74799;SDS011;63326;45.088;7.658;2024-01-15T01:52:57;9.98;;;6.20;;
74799;SDS011;63326;45.088;7.658;2024-01-15T01:55:26;7.78;;;6.13;;
74799;SDS011;63326;45.088;7.658;2024-01-15T01:57:56;13.77;;;6.28;;
74799;SDS011;63326;45.088;7.658;2024-01-15T02:00:23;8.32;;;7.53;;
74799;SDS011;63326;45.088;7.658;2024-01-15T02:02:50;11.50;;;7.13;;
74799;SDS011;63326;45.088;7.658;2024-01-15T02:05:20;13.43;;;7.18;;
74799;SDS011;63326;45.088;7.658;2024-01-15T02:07:48;4.45;;;3.72;;
74799;SDS011;63326;45.088;7.658;2024-01-15T02:10:15;12.13;;;6.72;;
74799;SDS011;63326;45.088;7.658;2024-01-15T02:12:42;11.07;;;5.95;;
74799;SDS011;63326;45.088;7.658;2024-01-15T02:15:09;6.65;;;5.97;;
74799;SDS011;63326;45.088;7.658;2024-01-15T02:17:55;11.52;;;7.43;;
74799;SDS011;63326;45.088;7.658;2024-01-15T02:20:27;7.47;;;6.47;;
74799;SDS011;63326;45.088;7.658;2024-01-15T02:22:54;10.23;;;8.30;;
74799;SDS011;63326;45.088;7.658;2024-01-15T02:25:21;9.25;;;5.80;;
74799;SDS011;63326;45.088;7.658;2024-01-15T02:27:47;9.25;;;6.82;;
74799;SDS011;63326;45.088;7.658;2024-01-15T02:30:14;8.93;;;7.47;;
74799;SDS011;63326;45.088;7.658;2024-01-15T02:32:42;12.73;;;7.25;;
74799;SDS011;63326;45.088;7.658;2024-01-15T02:35:09;10.90;;;5.47;;
74799;SDS011;63326;45.088;7.658;2024-01-15T02:37:35;9.95;;;6.85;;
74799;SDS011;63326;45.088;7.658;2024-01-15T02:40:02;9.68;;;5.38;;
74799;SDS011;63326;45.088;7.658;2024-01-15T02:42:29;11.30;;;6.75;;
74799;SDS011;63326;45.088;7.658;2024-01-15T02:44:56;13.25;;;7.47;;
74799;SDS011;63326;45.088;7.658;2024-01-15T02:47:23;9.02;;;6.35;;
74799;SDS011;63326;45.088;7.658;2024-01-15T02:49:50;8.23;;;6.05;;
74799;SDS011;63326;45.088;7.658;2024-01-15T02:52:17;7.72;;;5.35;;
74799;SDS011;63326;45.088;7.658;2024-01-15T02:54:44;11.55;;;6.60;;
74799;SDS011;63326;45.088;7.658;2024-01-15T02:57:10;10.93;;;6.45;;
74799;SDS011;63326;45.088;7.658;2024-01-15T02:59:37;13.73;;;6.65;;
74799;SDS011;63326;45.088;7.658;2024-01-15T03:02:04;10.43;;;7.05;;
74799;SDS011;63326;45.088;7.658;2024-01-15T03:04:30;10.57;;;6.35;;
74799;SDS011;63326;45.088;7.658;2024-01-15T03:06:57;16.67;;;6.63;;
74799;SDS011;63326;45.088;7.658;2024-01-15T03:09:24;13.50;;;6.80;;
74799;SDS011;63326;45.088;7.658;2024-01-15T03:11:51;14.75;;;8.75;;
74799;SDS011;63326;45.088;7.658;2024-01-15T03:14:18;10.18;;;6.78;;
74799;SDS011;63326;45.088;7.658;2024-01-15T03:16:44;10.27;;;7.72;;
74799;SDS011;63326;45.088;7.658;2024-01-15T03:19:11;7.90;;;4.95;;
74799;SDS011;63326;45.088;7.658;2024-01-15T03:21:38;16.33;;;7.30;;
74799;SDS011;63326;45.088;7.658;2024-01-15T03:24:04;10.65;;;5.20;;
74799;SDS011;63326;45.088;7.658;2024-01-15T03:26:31;10.90;;;6.57;;
74799;SDS011;63326;45.088;7.658;2024-01-15T03:28:58;11.32;;;7.47;;
74799;SDS011;63326;45.088;7.658;2024-01-15T03:31:24;11.32;;;8.10;;
74799;SDS011;63326;45.088;7.658;2024-01-15T03:33:51;13.63;;;7.57;;
74799;SDS011;63326;45.088;7.658;2024-01-15T03:36:18;16.67;;;8.75;;
74799;SDS011;63326;45.088;7.658;2024-01-15T03:38:45;16.13;;;9.73;;
74799;SDS011;63326;45.088;7.658;2024-01-15T03:41:12;10.68;;;7.57;;
74799;SDS011;63326;45.088;7.658;2024-01-15T03:43:38;21.88;;;9.35;;
74799;SDS011;63326;45.088;7.658;2024-01-15T03:46:06;14.93;;;9.13;;
74799;SDS011;63326;45.088;7.658;2024-01-15T03:48:33;16.38;;;8.82;;
74799;SDS011;63326;45.088;7.658;2024-01-15T03:51:00;12.82;;;7.63;;
74799;SDS011;63326;45.088;7.658;2024-01-15T03:53:27;13.70;;;8.25;;
74799;SDS011;63326;45.088;7.658;2024-01-15T03:55:53;16.90;;;7.80;;
74799;SDS011;63326;45.088;7.658;2024-01-15T03:58:20;17.38;;;9.20;;
74799;SDS011;63326;45.088;7.658;2024-01-15T04:00:47;12.40;;;9.18;;
74799;SDS011;63326;45.088;7.658;2024-01-15T04:03:14;13.63;;;7.82;;
74799;SDS011;63326;45.088;7.658;2024-01-15T04:05:40;14.45;;;7.05;;
74799;SDS011;63326;45.088;7.658;2024-01-15T04:08:07;10.10;;;8.02;;
74799;SDS011;63326;45.088;7.658;2024-01-15T04:10:34;13.10;;;8.05;;
74799;SDS011;63326;45.088;7.658;2024-01-15T04:13:00;15.65;;;11.48;;
74799;SDS011;63326;45.088;7.658;2024-01-15T04:15:29;11.77;;;8.05;;
74799;SDS011;63326;45.088;7.658;2024-01-15T04:17:56;22.35;;;9.15;;
74799;SDS011;63326;45.088;7.658;2024-01-15T04:20:23;22.27;;;9.32;;
74799;SDS011;63326;45.088;7.658;2024-01-15T04:22:51;15.90;;;9.65;;
74799;SDS011;63326;45.088;7.658;2024-01-15T04:25:18;17.50;;;10.52;;
74799;SDS011;63326;45.088;7.658;2024-01-15T04:27:45;15.82;;;8.88;;
74799;SDS011;63326;45.088;7.658;2024-01-15T04:30:12;16.30;;;8.75;;
74799;SDS011;63326;45.088;7.658;2024-01-15T04:32:39;10.98;;;8.57;;
74799;SDS011;63326;45.088;7.658;2024-01-15T04:35:06;12.88;;;9.27;;
74799;SDS011;63326;45.088;7.658;2024-01-15T04:37:33;15.15;;;8.95;;
74799;SDS011;63326;45.088;7.658;2024-01-15T04:40:00;15.18;;;9.80;;
74799;SDS011;63326;45.088;7.658;2024-01-15T04:42:30;24.58;;;11.52;;
74799;SDS011;63326;45.088;7.658;2024-01-15T04:44:57;15.48;;;10.02;;
74799;SDS011;63326;45.088;7.658;2024-01-15T04:47:24;18.55;;;10.38;;
74799;SDS011;63326;45.088;7.658;2024-01-15T04:49:51;13.48;;;11.00;;
74799;SDS011;63326;45.088;7.658;2024-01-15T04:52:18;14.73;;;9.57;;
74799;SDS011;63326;45.088;7.658;2024-01-15T04:54:45;13.85;;;6.25;;
74799;SDS011;63326;45.088;7.658;2024-01-15T04:57:11;17.38;;;11.13;;
74799;SDS011;63326;45.088;7.658;2024-01-15T04:59:38;16.85;;;9.23;;
74799;SDS011;63326;45.088;7.658;2024-01-15T05:02:06;13.50;;;8.45;;
74799;SDS011;63326;45.088;7.658;2024-01-15T05:04:32;11.00;;;7.57;;
74799;SDS011;63326;45.088;7.658;2024-01-15T05:06:59;20.60;;;10.77;;
74799;SDS011;63326;45.088;7.658;2024-01-15T05:09:26;16.90;;;8.23;;
74799;SDS011;63326;45.088;7.658;2024-01-15T05:11:56;16.75;;;10.18;;
74799;SDS011;63326;45.088;7.658;2024-01-15T05:14:23;11.90;;;8.52;;
74799;SDS011;63326;45.088;7.658;2024-01-15T05:16:50;12.15;;;7.20;;
74799;SDS011;63326;45.088;7.658;2024-01-15T05:19:17;13.70;;;8.55;;
74799;SDS011;63326;45.088;7.658;2024-01-15T05:21:45;17.40;;;9.70;;
74799;SDS011;63326;45.088;7.658;2024-01-15T05:24:11;14.05;;;9.23;;
74799;SDS011;63326;45.088;7.658;2024-01-15T05:26:38;14.95;;;8.73;;
74799;SDS011;63326;45.088;7.658;2024-01-15T05:29:05;21.05;;;11.63;;
74799;SDS011;63326;45.088;7.658;2024-01-15T05:31:32;19.88;;;9.60;;
74799;SDS011;63326;45.088;7.658;2024-01-15T05:33:59;19.50;;;10.57;;
74799;SDS011;63326;45.088;7.658;2024-01-15T05:36:26;13.85;;;9.48;;
74799;SDS011;63326;45.088;7.658;2024-01-15T05:38:53;17.90;;;9.50;;
74799;SDS011;63326;45.088;7.658;2024-01-15T05:41:19;17.30;;;10.88;;
74799;SDS011;63326;45.088;7.658;2024-01-15T05:43:46;19.90;;;11.23;;
74799;SDS011;63326;45.088;7.658;2024-01-15T05:46:13;17.08;;;8.93;;
74799;SDS011;63326;45.088;7.658;2024-01-15T05:48:40;18.23;;;11.68;;
74799;SDS011;63326;45.088;7.658;2024-01-15T05:51:07;17.05;;;9.18;;
74799;SDS011;63326;45.088;7.658;2024-01-15T05:53:34;23.80;;;11.02;;
74799;SDS011;63326;45.088;7.658;2024-01-15T05:56:00;12.95;;;9.02;;
74799;SDS011;63326;45.088;7.658;2024-01-15T05:58:27;19.13;;;9.25;;
74799;SDS011;63326;45.088;7.658;2024-01-15T06:00:54;20.45;;;10.30;;
74799;SDS011;63326;45.088;7.658;2024-01-15T06:03:21;20.40;;;12.82;;
74799;SDS011;63326;45.088;7.658;2024-01-15T06:05:48;13.85;;;8.10;;
74799;SDS011;63326;45.088;7.658;2024-01-15T06:08:14;16.17;;;9.48;;
74799;SDS011;63326;45.088;7.658;2024-01-15T06:10:41;17.20;;;9.23;;
74799;SDS011;63326;45.088;7.658;2024-01-15T06:13:08;15.10;;;8.65;;
74799;SDS011;63326;45.088;7.658;2024-01-15T06:15:34;20.83;;;7.55;;
74799;SDS011;63326;45.088;7.658;2024-01-15T06:18:01;16.20;;;8.73;;
74799;SDS011;63326;45.088;7.658;2024-01-15T06:20:28;17.27;;;10.95;;
74799;SDS011;63326;45.088;7.658;2024-01-15T06:22:55;13.73;;;10.40;;
74799;SDS011;63326;45.088;7.658;2024-01-15T06:25:21;15.55;;;10.48;;
74799;SDS011;63326;45.088;7.658;2024-01-15T06:27:48;12.55;;;8.88;;
74799;SDS011;63326;45.088;7.658;2024-01-15T06:30:15;17.08;;;9.00;;
74799;SDS011;63326;45.088;7.658;2024-01-15T06:32:41;16.02;;;8.82;;
74799;SDS011;63326;45.088;7.658;2024-01-15T06:35:08;12.20;;;7.70;;
74799;SDS011;63326;45.088;7.658;2024-01-15T06:37:37;14.27;;;8.07;;
74799;SDS011;63326;45.088;7.658;2024-01-15T06:40:04;18.33;;;9.35;;
74799;SDS011;63326;45.088;7.658;2024-01-15T06:42:32;9.93;;;6.57;;
74799;SDS011;63326;45.088;7.658;2024-01-15T06:44:58;18.52;;;9.27;;
74799;SDS011;63326;45.088;7.658;2024-01-15T06:47:25;9.15;;;7.35;;
74799;SDS011;63326;45.088;7.658;2024-01-15T06:49:52;13.10;;;8.27;;
74799;SDS011;63326;45.088;7.658;2024-01-15T06:52:19;12.27;;;7.50;;
74799;SDS011;63326;45.088;7.658;2024-01-15T06:54:46;11.02;;;7.47;;
74799;SDS011;63326;45.088;7.658;2024-01-15T06:57:12;12.23;;;8.27;;
74799;SDS011;63326;45.088;7.658;2024-01-15T06:59:39;14.63;;;8.75;;
74799;SDS011;63326;45.088;7.658;2024-01-15T07:02:06;20.60;;;8.90;;
74799;SDS011;63326;45.088;7.658;2024-01-15T07:04:32;15.95;;;7.75;;
74799;SDS011;63326;45.088;7.658;2024-01-15T07:06:59;14.93;;;8.55;;
74799;SDS011;63326;45.088;7.658;2024-01-15T07:09:26;12.68;;;8.55;;
74799;SDS011;63326;45.088;7.658;2024-01-15T07:11:52;19.60;;;8.05;;
74799;SDS011;63326;45.088;7.658;2024-01-15T07:14:19;17.83;;;8.93;;
74799;SDS011;63326;45.088;7.658;2024-01-15T07:16:46;16.38;;;9.82;;
74799;SDS011;63326;45.088;7.658;2024-01-15T07:19:14;11.23;;;8.25;;
74799;SDS011;63326;45.088;7.658;2024-01-15T07:21:41;21.55;;;11.70;;
74799;SDS011;63326;45.088;7.658;2024-01-15T07:24:09;17.50;;;8.60;;
74799;SDS011;63326;45.088;7.658;2024-01-15T07:26:37;12.98;;;8.40;;
74799;SDS011;63326;45.088;7.658;2024-01-15T07:29:04;16.05;;;9.18;;
74799;SDS011;63326;45.088;7.658;2024-01-15T07:31:30;18.88;;;7.13;;
74799;SDS011;63326;45.088;7.658;2024-01-15T07:33:57;14.02;;;9.27;;
74799;SDS011;63326;45.088;7.658;2024-01-15T07:36:27;20.15;;;10.43;;
74799;SDS011;63326;45.088;7.658;2024-01-15T07:38:54;18.27;;;11.85;;
74799;SDS011;63326;45.088;7.658;2024-01-15T07:41:21;19.77;;;12.98;;
74799;SDS011;63326;45.088;7.658;2024-01-15T07:43:49;16.92;;;9.82;;
74799;SDS011;63326;45.088;7.658;2024-01-15T07:46:16;18.63;;;10.38;;
74799;SDS011;63326;45.088;7.658;2024-01-15T07:48:43;19.00;;;10.55;;
74799;SDS011;63326;45.088;7.658;2024-01-15T07:51:10;16.88;;;10.27;;
74799;SDS011;63326;45.088;7.658;2024-01-15T07:53:37;16.58;;;10.77;;
74799;SDS011;63326;45.088;7.658;2024-01-15T07:56:07;24.20;;;12.85;;
74799;SDS011;63326;45.088;7.658;2024-01-15T07:58:33;15.43;;;11.35;;
74799;SDS011;63326;45.088;7.658;2024-01-15T08:01:00;20.90;;;11.90;;
74799;SDS011;63326;45.088;7.658;2024-01-15T08:03:27;24.63;;;12.05;;
74799;SDS011;63326;45.088;7.658;2024-01-15T08:05:54;19.70;;;12.40;;
74799;SDS011;63326;45.088;7.658;2024-01-15T08:08:23;20.08;;;10.52;;
74799;SDS011;63326;45.088;7.658;2024-01-15T08:10:50;19.50;;;9.82;;
74799;SDS011;63326;45.088;7.658;2024-01-15T08:13:17;27.98;;;15.57;;
74799;SDS011;63326;45.088;7.658;2024-01-15T08:15:44;21.17;;;13.23;;
74799;SDS011;63326;45.088;7.658;2024-01-15T08:18:10;20.95;;;11.20;;
74799;SDS011;63326;45.088;7.658;2024-01-15T08:20:38;24.10;;;12.57;;
74799;SDS011;63326;45.088;7.658;2024-01-15T08:23:05;22.23;;;14.70;;
74799;SDS011;63326;45.088;7.658;2024-01-15T08:25:31;26.15;;;14.50;;
74799;SDS011;63326;45.088;7.658;2024-01-15T08:27:58;18.50;;;11.93;;
74799;SDS011;63326;45.088;7.658;2024-01-15T08:30:25;32.85;;;16.30;;
74799;SDS011;63326;45.088;7.658;2024-01-15T08:32:54;20.98;;;13.68;;
74799;SDS011;63326;45.088;7.658;2024-01-15T08:35:33;20.98;;;12.85;;
74799;SDS011;63326;45.088;7.658;2024-01-15T08:38:01;21.35;;;13.50;;
74799;SDS011;63326;45.088;7.658;2024-01-15T08:40:28;22.77;;;12.00;;
74799;SDS011;63326;45.088;7.658;2024-01-15T08:42:55;22.80;;;13.20;;
74799;SDS011;63326;45.088;7.658;2024-01-15T08:45:22;25.80;;;12.90;;
74799;SDS011;63326;45.088;7.658;2024-01-15T08:47:49;29.70;;;15.02;;
74799;SDS011;63326;45.088;7.658;2024-01-15T08:50:16;20.50;;;13.35;;
74799;SDS011;63326;45.088;7.658;2024-01-15T08:52:43;22.95;;;13.65;;
74799;SDS011;63326;45.088;7.658;2024-01-15T08:55:09;23.20;;;12.68;;
74799;SDS011;63326;45.088;7.658;2024-01-15T08:57:36;26.52;;;12.98;;
74799;SDS011;63326;45.088;7.658;2024-01-15T09:00:02;32.03;;;15.43;;
74799;SDS011;63326;45.088;7.658;2024-01-15T09:02:29;25.52;;;12.93;;
74799;SDS011;63326;45.088;7.658;2024-01-15T09:04:56;20.23;;;12.25;;
74799;SDS011;63326;45.088;7.658;2024-01-15T09:07:23;23.23;;;14.70;;
74799;SDS011;63326;45.088;7.658;2024-01-15T09:09:51;23.02;;;12.15;;
74799;SDS011;63326;45.088;7.658;2024-01-15T09:12:18;22.05;;;13.23;;
74799;SDS011;63326;45.088;7.658;2024-01-15T09:14:47;28.45;;;13.02;;
74799;SDS011;63326;45.088;7.658;2024-01-15T09:17:14;19.73;;;11.65;;
74799;SDS011;63326;45.088;7.658;2024-01-15T09:19:40;20.65;;;12.30;;
74799;SDS011;63326;45.088;7.658;2024-01-15T09:22:08;19.85;;;13.68;;
74799;SDS011;63326;45.088;7.658;2024-01-15T09:24:35;22.33;;;11.98;;
74799;SDS011;63326;45.088;7.658;2024-01-15T09:27:02;18.60;;;11.13;;
74799;SDS011;63326;45.088;7.658;2024-01-15T09:29:29;20.95;;;12.07;;
74799;SDS011;63326;45.088;7.658;2024-01-15T09:31:56;22.10;;;13.32;;
74799;SDS011;63326;45.088;7.658;2024-01-15T09:34:23;23.73;;;13.75;;
74799;SDS011;63326;45.088;7.658;2024-01-15T09:36:50;26.40;;;15.27;;
74799;SDS011;63326;45.088;7.658;2024-01-15T09:39:17;24.88;;;14.77;;
74799;SDS011;63326;45.088;7.658;2024-01-15T09:41:44;24.15;;;15.75;;
74799;SDS011;63326;45.088;7.658;2024-01-15T09:44:10;25.08;;;17.65;;
74799;SDS011;63326;45.088;7.658;2024-01-15T09:46:38;22.38;;;13.73;;
74799;SDS011;63326;45.088;7.658;2024-01-15T09:49:06;23.17;;;15.15;;
74799;SDS011;63326;45.088;7.658;2024-01-15T09:51:33;26.95;;;15.20;;
74799;SDS011;63326;45.088;7.658;2024-01-15T09:54:00;24.85;;;15.32;;
74799;SDS011;63326;45.088;7.658;2024-01-15T09:56:26;24.63;;;15.00;;
74799;SDS011;63326;45.088;7.658;2024-01-15T09:58:53;29.08;;;15.85;;
74799;SDS011;63326;45.088;7.658;2024-01-15T10:01:21;20.42;;;13.07;;
74799;SDS011;63326;45.088;7.658;2024-01-15T10:03:49;21.73;;;11.93;;
74799;SDS011;63326;45.088;7.658;2024-01-15T10:06:16;22.67;;;11.90;;
74799;SDS011;63326;45.088;7.658;2024-01-15T10:08:49;20.25;;;11.77;;
74799;SDS011;63326;45.088;7.658;2024-01-15T10:11:17;19.50;;;12.40;;
74799;SDS011;63326;45.088;7.658;2024-01-15T10:13:44;21.45;;;11.02;;
74799;SDS011;63326;45.088;7.658;2024-01-15T10:16:12;17.67;;;10.55;;
74799;SDS011;63326;45.088;7.658;2024-01-15T10:18:39;21.55;;;12.32;;
74799;SDS011;63326;45.088;7.658;2024-01-15T10:21:06;22.27;;;12.25;;
74799;SDS011;63326;45.088;7.658;2024-01-15T10:23:33;21.90;;;12.35;;
74799;SDS011;63326;45.088;7.658;2024-01-15T10:26:00;23.40;;;13.20;;
74799;SDS011;63326;45.088;7.658;2024-01-15T10:28:27;23.75;;;11.95;;
74799;SDS011;63326;45.088;7.658;2024-01-15T10:30:56;22.00;;;12.68;;
74799;SDS011;63326;45.088;7.658;2024-01-15T10:33:24;18.25;;;11.60;;
74799;SDS011;63326;45.088;7.658;2024-01-15T10:35:55;22.73;;;14.38;;
74799;SDS011;63326;45.088;7.658;2024-01-15T10:40:56;23.27;;;12.35;;
74799;SDS011;63326;45.088;7.658;2024-01-15T10:43:23;19.48;;;11.57;;
74799;SDS011;63326;45.088;7.658;2024-01-15T10:45:54;15.88;;;9.88;;
74799;SDS011;63326;45.088;7.658;2024-01-15T10:48:24;21.50;;;12.18;;
74799;SDS011;63326;45.088;7.658;2024-01-15T10:50:53;15.23;;;9.82;;
74799;SDS011;63326;45.088;7.658;2024-01-15T10:53:19;16.65;;;11.43;;
74799;SDS011;63326;45.088;7.658;2024-01-15T10:55:47;18.92;;;8.85;;
74799;SDS011;63326;45.088;7.658;2024-01-15T10:58:15;16.45;;;10.05;;
74799;SDS011;63326;45.088;7.658;2024-01-15T11:00:43;18.98;;;10.60;;
74799;SDS011;63326;45.088;7.658;2024-01-15T11:03:11;16.05;;;9.35;;
74799;SDS011;63326;45.088;7.658;2024-01-15T11:05:41;13.93;;;7.75;;
74799;SDS011;63326;45.088;7.658;2024-01-15T11:08:09;17.35;;;8.98;;
74799;SDS011;63326;45.088;7.658;2024-01-15T11:10:45;13.73;;;7.57;;
74799;SDS011;63326;45.088;7.658;2024-01-15T11:13:15;15.82;;;8.35;;
74799;SDS011;63326;45.088;7.658;2024-01-15T11:15:57;10.75;;;7.65;;
74799;SDS011;63326;45.088;7.658;2024-01-15T11:18:28;14.80;;;7.75;;
74799;SDS011;63326;45.088;7.658;2024-01-15T11:29:06;10.73;;;7.53;;
74799;SDS011;63326;45.088;7.658;2024-01-15T11:34:07;15.65;;;8.55;;
74799;SDS011;63326;45.088;7.658;2024-01-15T11:39:41;15.32;;;8.20;;
74799;SDS011;63326;45.088;7.658;2024-01-15T11:42:11;13.43;;;7.45;;
74799;SDS011;63326;45.088;7.658;2024-01-15T11:44:38;16.40;;;8.02;;
74799;SDS011;63326;45.088;7.658;2024-01-15T11:47:06;20.10;;;7.75;;
74799;SDS011;63326;45.088;7.658;2024-01-15T11:52:20;15.18;;;7.88;;
74799;SDS011;63326;45.088;7.658;2024-01-15T11:57:46;13.40;;;7.50;;
74799;SDS011;63326;45.088;7.658;2024-01-15T12:00:17;13.85;;;6.38;;
74799;SDS011;63326;45.088;7.658;2024-01-15T12:02:45;11.93;;;7.28;;
74799;SDS011;63326;45.088;7.658;2024-01-15T12:05:13;12.65;;;6.68;;
74799;SDS011;63326;45.088;7.658;2024-01-15T12:07:45;9.85;;;6.57;;
74799;SDS011;63326;45.088;7.658;2024-01-15T12:10:20;12.43;;;6.75;;
74799;SDS011;63326;45.088;7.658;2024-01-15T12:12:57;13.45;;;6.60;;
74799;SDS011;63326;45.088;7.658;2024-01-15T12:15:32;12.95;;;6.57;;
74799;SDS011;63326;45.088;7.658;2024-01-15T12:17:59;13.25;;;7.13;;
74799;SDS011;63326;45.088;7.658;2024-01-15T12:20:30;11.40;;;6.00;;
74799;SDS011;63326;45.088;7.658;2024-01-15T12:22:58;13.18;;;7.38;;
74799;SDS011;63326;45.088;7.658;2024-01-15T12:25:32;13.45;;;8.48;;
74799;SDS011;63326;45.088;7.658;2024-01-15T12:28:00;12.40;;;7.50;;
74799;SDS011;63326;45.088;7.658;2024-01-15T12:30:28;13.85;;;6.43;;
74799;SDS011;63326;45.088;7.658;2024-01-15T12:33:03;10.02;;;5.20;;
74799;SDS011;63326;45.088;7.658;2024-01-15T12:35:31;9.95;;;5.55;;
74799;SDS011;63326;45.088;7.658;2024-01-15T12:37:59;11.35;;;5.85;;
74799;SDS011;63326;45.088;7.658;2024-01-15T12:40:31;10.88;;;6.03;;
74799;SDS011;63326;45.088;7.658;2024-01-15T12:42:59;12.38;;;6.15;;
74799;SDS011;63326;45.088;7.658;2024-01-15T12:45:27;13.88;;;6.45;;
74799;SDS011;63326;45.088;7.658;2024-01-15T12:47:54;12.43;;;5.80;;
74799;SDS011;63326;45.088;7.658;2024-01-15T12:50:24;12.75;;;6.60;;
74799;SDS011;63326;45.088;7.658;2024-01-15T12:52:52;9.98;;;4.93;;
74799;SDS011;63326;45.088;7.658;2024-01-15T12:55:19;11.98;;;5.60;;
74799;SDS011;63326;45.088;7.658;2024-01-15T12:57:47;11.98;;;6.93;;
74799;SDS011;63326;45.088;7.658;2024-01-15T13:00:14;12.88;;;6.30;;
74799;SDS011;63326;45.088;7.658;2024-01-15T13:02:45;12.27;;;6.35;;
74799;SDS011;63326;45.088;7.658;2024-01-15T13:05:13;14.20;;;5.80;;
74799;SDS011;63326;45.088;7.658;2024-01-15T13:07:46;15.10;;;6.75;;
74799;SDS011;63326;45.088;7.658;2024-01-15T13:10:14;9.65;;;5.97;;
74799;SDS011;63326;45.088;7.658;2024-01-15T13:12:44;10.32;;;6.30;;
74799;SDS011;63326;45.088;7.658;2024-01-15T13:15:11;14.98;;;6.35;;
74799;SDS011;63326;45.088;7.658;2024-01-15T13:17:40;13.38;;;7.68;;
74799;SDS011;63326;45.088;7.658;2024-01-15T13:20:08;12.93;;;7.78;;
74799;SDS011;63326;45.088;7.658;2024-01-15T13:22:36;12.95;;;6.72;;
74799;SDS011;63326;45.088;7.658;2024-01-15T13:25:09;10.65;;;5.78;;
74799;SDS011;63326;45.088;7.658;2024-01-15T13:27:38;14.23;;;6.03;;
74799;SDS011;63326;45.088;7.658;2024-01-15T13:30:07;10.65;;;5.75;;
74799;SDS011;63326;45.088;7.658;2024-01-15T13:32:35;11.43;;;6.68;;
74799;SDS011;63326;45.088;7.658;2024-01-15T13:35:02;13.02;;;6.88;;
74799;SDS011;63326;45.088;7.658;2024-01-15T13:37:32;10.40;;;6.43;;
74799;SDS011;63326;45.088;7.658;2024-01-15T13:39:58;12.38;;;7.10;;
74799;SDS011;63326;45.088;7.658;2024-01-15T13:42:25;12.27;;;6.93;;
74799;SDS011;63326;45.088;7.658;2024-01-15T13:44:53;15.93;;;7.40;;
74799;SDS011;63326;45.088;7.658;2024-01-15T13:47:20;12.05;;;6.45;;
74799;SDS011;63326;45.088;7.658;2024-01-15T13:49:47;14.18;;;7.35;;
74799;SDS011;63326;45.088;7.658;2024-01-15T13:52:14;12.95;;;6.07;;
74799;SDS011;63326;45.088;7.658;2024-01-15T13:54:41;15.55;;;7.55;;
74799;SDS011;63326;45.088;7.658;2024-01-15T13:57:19;10.02;;;6.75;;
74799;SDS011;63326;45.088;7.658;2024-01-15T13:59:47;11.60;;;6.40;;
74799;SDS011;63326;45.088;7.658;2024-01-15T14:02:15;13.93;;;7.00;;
74799;SDS011;63326;45.088;7.658;2024-01-15T14:04:47;11.35;;;6.00;;
74799;SDS011;63326;45.088;7.658;2024-01-15T14:07:15;20.95;;;7.20;;
74799;SDS011;63326;45.088;7.658;2024-01-15T14:09:42;13.00;;;6.50;;
74799;SDS011;63326;45.088;7.658;2024-01-15T14:12:09;12.50;;;6.40;;
74799;SDS011;63326;45.088;7.658;2024-01-15T14:14:36;12.43;;;7.63;;
74799;SDS011;63326;45.088;7.658;2024-01-15T14:17:02;14.80;;;6.25;;
74799;SDS011;63326;45.088;7.658;2024-01-15T14:19:30;12.32;;;6.35;;
74799;SDS011;63326;45.088;7.658;2024-01-15T14:21:57;13.35;;;6.00;;
74799;SDS011;63326;45.088;7.658;2024-01-15T14:24:24;11.18;;;6.10;;
74799;SDS011;63326;45.088;7.658;2024-01-15T14:26:50;13.70;;;7.95;;
74799;SDS011;63326;45.088;7.658;2024-01-15T14:29:17;13.60;;;6.25;;
74799;SDS011;63326;45.088;7.658;2024-01-15T14:31:46;15.40;;;8.02;;
74799;SDS011;63326;45.088;7.658;2024-01-15T14:34:14;15.63;;;6.45;;
74799;SDS011;63326;45.088;7.658;2024-01-15T14:36:42;12.38;;;7.47;;
74799;SDS011;63326;45.088;7.658;2024-01-15T14:39:09;17.42;;;6.38;;
74799;SDS011;63326;45.088;7.658;2024-01-15T14:41:36;13.70;;;7.57;;
74799;SDS011;63326;45.088;7.658;2024-01-15T14:44:02;15.50;;;7.32;;
74799;SDS011;63326;45.088;7.658;2024-01-15T14:46:29;14.35;;;6.82;;
74799;SDS011;63326;45.088;7.658;2024-01-15T14:48:56;14.52;;;7.18;;
74799;SDS011;63326;45.088;7.658;2024-01-15T14:51:23;18.40;;;7.55;;
74799;SDS011;63326;45.088;7.658;2024-01-15T14:53:50;14.07;;;8.60;;
74799;SDS011;63326;45.088;7.658;2024-01-15T14:56:17;14.73;;;7.72;;
74799;SDS011;63326;45.088;7.658;2024-01-15T14:58:44;15.82;;;8.07;;
74799;SDS011;63326;45.088;7.658;2024-01-15T15:01:11;15.02;;;8.38;;
74799;SDS011;63326;45.088;7.658;2024-01-15T15:03:39;15.52;;;8.95;;